Time;durP1;ratioP1;P1;durP2;ratioP2;P2;SDS_P1;SDS_P2;PMS_P1;PMS_P2;Temp;Humidity;BMP_temperature;BMP_pressure;BME280_temperature;BME280_humidity;BME280_pressure;Samples;Min_cycle;Max_cycle;Signal;HPM_P1;HPM_P2
2022/02/17 00:01:08;;;;;;;0.20;0.20;;;9.70;99.60;;;;;;5041677;28;20032;-55
2022/02/17 00:03:33;;;;;;;0.30;0.30;;;9.70;99.70;;;;;;5043464;28;20079;-55
2022/02/17 00:06:00;;;;;;;0.30;0.30;;;9.70;99.90;;;;;;5037134;28;22212;-55
2022/02/17 00:08:25;;;;;;;0.40;0.40;;;9.80;99.80;;;;;;5040901;28;20056;-55
2022/02/17 00:10:51;;;;;;;0.30;0.30;;;9.70;99.90;;;;;;5044526;28;20037;-55
2022/02/17 00:13:17;;;;;;;0.28;0.28;;;9.70;99.90;;;;;;5034609;28;20029;-55
2022/02/17 00:15:43;;;;;;;0.20;0.20;;;9.70;99.90;;;;;;5042900;28;20033;-55
2022/02/17 00:18:14;;;;;;;0.30;0.30;;;9.70;99.90;;;;;;5039146;28;20037;-55
2022/02/17 00:20:40;;;;;;;0.30;0.30;;;9.70;99.90;;;;;;5039564;28;20359;-55
2022/02/17 00:23:06;;;;;;;0.20;0.20;;;9.70;99.90;;;;;;5041640;28;20043;-55
2022/02/17 00:25:32;;;;;;;0.20;0.20;;;9.70;99.90;;;;;;5040670;28;20359;-55
2022/02/17 00:27:57;;;;;;;0.55;0.55;;;9.70;99.90;;;;;;5034678;28;20025;-54
2022/02/17 00:30:23;;;;;;;0.52;0.52;;;9.80;99.90;;;;;;5043185;28;20303;-55
2022/02/17 00:32:49;;;;;;;0.30;0.30;;;9.70;99.90;;;;;;5044575;28;20373;-55
2022/02/17 00:35:14;;;;;;;0.40;0.40;;;9.70;99.90;;;;;;5043871;28;20025;-55
2022/02/17 00:37:40;;;;;;;0.35;0.35;;;9.70;99.90;;;;;;5037320;28;20264;-55
2022/02/17 00:40:07;;;;;;;0.82;0.43;;;9.70;99.90;;;;;;5032368;28;20516;-55
2022/02/17 00:42:32;;;;;;;0.20;0.20;;;9.70;99.90;;;;;;5034466;28;20300;-55
2022/02/17 00:44:58;;;;;;;0.40;0.40;;;9.80;99.90;;;;;;5045147;28;20056;-55
2022/02/17 00:47:24;;;;;;;0.40;0.40;;;9.70;99.90;;;;;;5039365;28;20017;-55
2022/02/17 00:49:50;;;;;;;0.30;0.30;;;9.80;99.90;;;;;;5037215;28;20044;-55
2022/02/17 00:52:15;;;;;;;0.30;0.30;;;9.80;99.90;;;;;;5043530;28;20059;-55
2022/02/17 00:54:41;;;;;;;0.30;0.30;;;9.80;99.90;;;;;;5043222;28;20033;-55
2022/02/17 00:57:07;;;;;;;1.13;1.02;;;9.80;99.90;;;;;;5041999;28;20033;-55
2022/02/17 00:59:32;;;;;;;0.30;0.30;;;9.80;99.90;;;;;;5035507;28;20052;-55
2022/02/17 01:01:58;;;;;;;0.30;0.30;;;9.80;99.90;;;;;;5035191;28;20029;-55
2022/02/17 01:04:24;;;;;;;0.47;0.47;;;9.80;99.90;;;;;;5040557;28;20017;-55
2022/02/17 01:06:50;;;;;;;0.20;0.20;;;9.80;99.90;;;;;;5043473;28;20025;-55
2022/02/17 01:09:16;;;;;;;2.35;0.35;;;9.80;99.90;;;;;;5037226;28;20128;-55
2022/02/17 01:11:42;;;;;;;0.30;0.30;;;9.80;99.90;;;;;;5034676;28;20029;-55
2022/02/17 01:14:09;;;;;;;0.30;0.30;;;9.80;99.90;;;;;;5031783;28;20502;-55
2022/02/17 01:16:35;;;;;;;0.50;0.50;;;9.80;99.90;;;;;;5044153;28;20104;-55
2022/02/17 01:19:01;;;;;;;0.40;0.40;;;9.80;99.90;;;;;;5039659;28;20032;-55
2022/02/17 01:21:27;;;;;;;0.40;0.40;;;9.80;99.90;;;;;;5039885;28;20032;-55
2022/02/17 01:23:52;;;;;;;0.30;0.30;;;9.80;99.90;;;;;;5038603;28;20116;-55
2022/02/17 01:26:18;;;;;;;0.25;0.25;;;9.80;99.90;;;;;;5043299;28;20183;-55
2022/02/17 01:28:44;;;;;;;0.40;0.40;;;9.80;99.90;;;;;;5038708;28;20442;-55
2022/02/17 01:31:10;;;;;;;0.30;0.30;;;9.80;99.90;;;;;;5034321;28;20116;-55
2022/02/17 01:33:36;;;;;;;0.30;0.30;;;9.80;99.90;;;;;;5036904;28;20025;-55
2022/02/17 01:36:06;;;;;;;0.30;0.30;;;9.80;99.90;;;;;;5043702;28;20029;-55
2022/02/17 01:38:37;;;;;;;0.40;0.40;;;9.80;99.90;;;;;;5042366;28;20319;-55
2022/02/17 01:41:03;;;;;;;;;;;9.90;99.90;;;;;;5037937;28;20080;-55
2022/02/17 01:43:29;;;;;;;0.30;0.30;;;9.80;99.90;;;;;;5033011;28;20014;-55
2022/02/17 01:45:54;;;;;;;0.20;0.20;;;9.80;99.90;;;;;;5041332;28;20431;-55
2022/02/17 01:48:21;;;;;;;0.28;0.28;;;9.80;99.90;;;;;;5043262;28;20052;-55
2022/02/17 01:50:47;;;;;;;0.30;0.30;;;9.80;99.90;;;;;;5038873;28;20126;-55
2022/02/17 01:53:12;;;;;;;0.47;0.40;;;9.80;99.90;;;;;;5036682;28;20063;-55
2022/02/17 01:55:41;;;;;;;0.40;0.40;;;9.80;99.90;;;;;;5039608;28;20112;-55
2022/02/17 01:58:07;;;;;;;0.20;0.20;;;9.90;99.90;;;;;;5035867;28;20096;-55
2022/02/17 02:00:33;;;;;;;0.55;0.50;;;9.90;99.90;;;;;;5037618;28;20029;-55
2022/02/17 02:02:59;;;;;;;0.20;0.20;;;9.90;99.90;;;;;;5034760;28;20025;-55
2022/02/17 02:05:24;;;;;;;0.30;0.30;;;9.90;99.90;;;;;;5037857;28;20036;-55
2022/02/17 02:07:51;;;;;;;0.30;0.30;;;9.80;99.90;;;;;;5041941;28;20532;-55
2022/02/17 02:10:16;;;;;;;0.30;0.30;;;9.90;99.90;;;;;;5042872;28;20303;-55
2022/02/17 02:12:42;;;;;;;0.35;0.35;;;9.80;99.90;;;;;;5035404;28;20071;-55
2022/02/17 02:15:08;;;;;;;0.32;0.32;;;9.90;99.90;;;;;;5037218;28;20056;-55
2022/02/17 02:17:34;;;;;;;0.40;0.40;;;9.90;99.90;;;;;;5039237;28;20033;-55
2022/02/17 02:20:06;;;;;;;0.43;0.40;;;9.90;99.90;;;;;;5038790;28;20116;-55
2022/02/17 02:22:33;;;;;;;0.20;0.20;;;9.80;99.90;;;;;;5034784;28;20029;-55
2022/02/17 02:25:00;;;;;;;0.30;0.30;;;9.90;99.90;;;;;;5034389;28;20032;-55
2022/02/17 02:27:29;;;;;;;1.35;0.28;;;9.90;99.90;;;;;;5039017;28;20104;-55
2022/02/17 02:29:56;;;;;;;0.30;0.28;;;9.90;99.90;;;;;;5032268;28;20529;-55
2022/02/17 02:32:21;;;;;;;0.20;0.20;;;9.90;99.90;;;;;;5034532;28;20128;-55
2022/02/17 02:34:47;;;;;;;0.20;0.20;;;9.80;99.90;;;;;;5037233;28;20121;-54
2022/02/17 02:37:12;;;;;;;0.30;0.30;;;9.90;99.90;;;;;;5035586;28;20443;-55
2022/02/17 02:39:38;;;;;;;0.40;0.40;;;9.90;99.90;;;;;;5041183;28;20022;-55
2022/02/17 02:42:05;;;;;;;0.30;0.30;;;9.90;99.90;;;;;;5037715;28;20021;-55
2022/02/17 02:44:31;;;;;;;0.30;0.30;;;9.90;99.90;;;;;;5025273;28;20029;-55
2022/02/17 02:46:58;;;;;;;0.30;0.30;;;9.90;99.90;;;;;;5042501;28;20028;-55
2022/02/17 02:49:23;;;;;;;0.30;0.30;;;9.90;99.90;;;;;;5040359;28;20081;-55
2022/02/17 02:51:50;;;;;;;0.30;0.30;;;9.90;99.90;;;;;;5040377;28;20022;-55
2022/02/17 02:54:15;;;;;;;0.30;0.30;;;9.90;99.90;;;;;;5037971;28;20160;-55
2022/02/17 02:56:41;;;;;;;0.30;0.30;;;9.90;99.90;;;;;;5037574;28;20112;-55
2022/02/17 02:59:07;;;;;;;0.43;0.38;;;9.90;99.90;;;;;;5030333;28;20120;-55
2022/02/17 03:01:33;;;;;;;0.30;0.30;;;9.90;99.90;;;;;;5041096;28;20116;-55
2022/02/17 03:03:59;;;;;;;0.30;0.30;;;9.90;99.90;;;;;;5034519;28;20033;-55
2022/02/17 03:06:28;;;;;;;0.30;0.30;;;9.90;99.90;;;;;;5036420;28;20536;-55
2022/02/17 03:08:54;;;;;;;0.20;0.20;;;9.90;99.90;;;;;;5040583;28;20025;-55
2022/02/17 03:11:19;;;;;;;0.30;0.30;;;9.90;99.90;;;;;;5033268;28;20044;-55
2022/02/17 03:13:45;;;;;;;0.30;0.30;;;9.90;99.90;;;;;;5034590;28;20029;-55
2022/02/17 03:16:11;;;;;;;0.20;0.20;;;9.90;99.90;;;;;;5037811;28;20115;-55
2022/02/17 03:18:36;;;;;;;0.30;0.30;;;9.90;99.90;;;;;;5038393;28;20511;-55
2022/02/17 03:21:02;;;;;;;0.20;0.20;;;9.90;99.90;;;;;;5036131;28;20024;-55
2022/02/17 03:23:28;;;;;;;0.20;0.20;;;9.90;99.90;;;;;;5039840;28;20032;-55
2022/02/17 03:25:55;;;;;;;0.57;0.57;;;9.90;99.90;;;;;;5039473;28;20028;-55
2022/02/17 03:28:21;;;;;;;0.30;0.30;;;9.90;99.90;;;;;;5033708;28;20498;-55
2022/02/17 03:30:46;;;;;;;0.30;0.30;;;9.90;99.90;;;;;;5031476;28;20048;-55
2022/02/17 03:33:12;;;;;;;0.30;0.30;;;9.90;99.90;;;;;;5031981;28;20351;-55
2022/02/17 03:35:38;;;;;;;0.30;0.30;;;9.90;99.90;;;;;;5040218;28;20532;-55
2022/02/17 03:38:04;;;;;;;0.30;0.30;;;9.90;99.90;;;;;;5032496;28;20029;-55
2022/02/17 03:40:29;;;;;;;0.20;0.20;;;9.90;99.90;;;;;;5033050;28;20052;-55
2022/02/17 03:42:56;;;;;;;0.25;0.25;;;9.90;99.90;;;;;;5036402;28;20032;-55
2022/02/17 03:45:22;;;;;;;0.20;0.20;;;9.90;99.90;;;;;;5033388;28;20033;-55
2022/02/17 03:47:47;;;;;;;0.20;0.20;;;9.90;99.90;;;;;;5035817;28;20092;-55
2022/02/17 03:50:13;;;;;;;0.20;0.20;;;9.90;99.90;;;;;;5040566;28;20288;-55
2022/02/17 03:52:39;;;;;;;0.30;0.30;;;9.90;99.90;;;;;;5034991;28;20022;-55
2022/02/17 03:55:05;;;;;;;0.30;0.30;;;9.90;99.90;;;;;;5038217;28;20036;-55
2022/02/17 03:57:31;;;;;;;1.45;0.30;;;9.90;99.90;;;;;;5030531;28;20056;-54
2022/02/17 03:59:56;;;;;;;0.22;0.22;;;9.90;99.90;;;;;;5029070;28;20350;-55
2022/02/17 04:02:22;;;;;;;0.20;0.20;;;9.90;99.90;;;;;;5038009;28;20104;-55
2022/02/17 04:04:47;;;;;;;0.30;0.30;;;9.90;99.90;;;;;;5033641;28;20025;-55
2022/02/17 04:07:16;;;;;;;0.20;0.20;;;9.90;99.90;;;;;;5034845;28;20037;-55
2022/02/17 04:09:41;;;;;;;0.20;0.20;;;9.90;99.90;;;;;;5037160;28;20076;-55
2022/02/17 04:12:07;;;;;;;0.20;0.20;;;9.90;99.90;;;;;;5035716;28;20080;-55
2022/02/17 04:14:33;;;;;;;0.20;0.20;;;9.90;99.90;;;;;;5030778;28;20026;-55
2022/02/17 04:16:59;;;;;;;1.77;0.40;;;9.90;99.90;;;;;;5038556;28;20516;-55
2022/02/17 04:19:26;;;;;;;0.20;0.20;;;9.90;99.90;;;;;;5036908;28;20064;-55
2022/02/17 04:21:52;;;;;;;0.28;0.28;;;9.90;99.90;;;;;;5035405;28;20072;-55
2022/02/17 04:24:18;;;;;;;0.30;0.30;;;9.90;99.90;;;;;;5035145;28;20021;-55
2022/02/17 04:26:44;;;;;;;5.18;0.32;;;9.90;99.90;;;;;;5040070;28;20022;-55
2022/02/17 04:29:10;;;;;;;0.85;0.85;;;9.90;99.90;;;;;;5038240;28;20032;-55
2022/02/17 04:31:36;;;;;;;0.32;0.32;;;9.90;99.90;;;;;;5031352;28;20612;-55
2022/02/17 04:34:01;;;;;;;0.47;0.47;;;9.90;99.90;;;;;;5032401;28;20026;-55
2022/02/17 04:36:27;;;;;;;0.20;0.20;;;9.90;99.90;;;;;;5042374;28;20180;-55
2022/02/17 04:38:53;;;;;;;0.20;0.20;;;9.90;99.90;;;;;;5042714;28;20036;-55
2022/02/17 04:44:04;;;;;;;0.30;0.30;;;9.90;99.90;;;;;;5040276;28;20055;-55
2022/02/17 04:46:29;;;;;;;0.30;0.30;;;9.90;99.90;;;;;;5037851;28;20025;-55
2022/02/17 04:48:55;;;;;;;0.30;0.30;;;9.90;99.90;;;;;;5038328;28;20021;-55
2022/02/17 04:51:21;;;;;;;0.30;0.30;;;9.90;99.90;;;;;;5043891;28;20442;-55
2022/02/17 04:53:46;;;;;;;0.20;0.20;;;9.90;99.90;;;;;;5039361;28;20456;-54
2022/02/17 04:56:12;;;;;;;0.30;0.30;;;9.90;99.90;;;;;;5043572;28;20385;-55
2022/02/17 04:58:38;;;;;;;0.30;0.30;;;9.90;99.90;;;;;;5034122;28;20116;-55
2022/02/17 05:01:03;;;;;;;0.85;0.38;;;9.90;99.90;;;;;;5036090;28;20040;-55
2022/02/17 05:03:29;;;;;;;0.20;0.20;;;9.90;99.90;;;;;;5034112;28;20026;-55
2022/02/17 05:05:56;;;;;;;0.30;0.30;;;9.90;99.90;;;;;;5042676;28;20033;-55
2022/02/17 05:08:22;;;;;;;0.20;0.20;;;9.90;99.90;;;;;;5040900;28;20059;-55
2022/02/17 05:10:48;;;;;;;0.30;0.30;;;9.90;99.90;;;;;;5041333;28;20045;-56
2022/02/17 05:13:15;;;;;;;0.35;0.35;;;9.90;99.90;;;;;;5042392;28;20022;-55
2022/02/17 05:15:41;;;;;;;0.30;0.30;;;9.90;99.90;;;;;;5033748;28;20060;-55
2022/02/17 05:18:06;;;;;;;1.63;0.40;;;9.90;99.90;;;;;;5043481;28;20517;-55
2022/02/17 05:20:32;;;;;;;0.22;0.22;;;9.90;99.90;;;;;;5039600;28;20355;-55
2022/02/17 05:22:58;;;;;;;0.30;0.30;;;9.90;99.90;;;;;;5037829;28;20080;-56
2022/02/17 05:25:23;;;;;;;0.30;0.30;;;9.90;99.90;;;;;;5042776;28;20025;-55
2022/02/17 05:27:49;;;;;;;0.30;0.30;;;9.90;99.90;;;;;;5041879;28;20436;-55
2022/02/17 05:30:16;;;;;;;0.30;0.30;;;9.90;99.90;;;;;;5035938;28;20140;-55
2022/02/17 05:32:43;;;;;;;0.20;0.20;;;9.90;99.90;;;;;;5039166;28;20072;-55
2022/02/17 05:35:09;;;;;;;0.30;0.30;;;9.90;99.90;;;;;;5038042;28;20508;-55
2022/02/17 05:37:36;;;;;;;0.38;0.38;;;9.90;99.90;;;;;;5041022;28;20470;-55
2022/02/17 05:40:04;;;;;;;0.20;0.20;;;9.90;99.90;;;;;;5041382;28;20136;-56
2022/02/17 05:42:30;;;;;;;0.20;0.20;;;9.90;99.90;;;;;;5037423;28;20355;-55
2022/02/17 05:44:55;;;;;;;0.35;0.35;;;9.90;99.90;;;;;;5028955;28;20030;-55
2022/02/17 05:47:21;;;;;;;0.30;0.30;;;10.00;99.90;;;;;;5036416;28;20025;-55
2022/02/17 05:49:47;;;;;;;1.65;0.40;;;10.00;99.90;;;;;;5040036;28;20049;-56
2022/02/17 05:52:12;;;;;;;0.40;0.40;;;10.00;99.90;;;;;;5035482;28;20017;-56
2022/02/17 05:54:38;;;;;;;0.20;0.20;;;10.00;99.90;;;;;;5038120;28;20080;-56
2022/02/17 05:57:04;;;;;;;0.30;0.30;;;10.00;99.90;;;;;;5037966;28;20068;-56
2022/02/17 05:59:30;;;;;;;0.20;0.20;;;10.00;99.90;;;;;;5043492;28;20094;-56
2022/02/17 06:01:55;;;;;;;0.20;0.20;;;10.00;99.90;;;;;;5033927;28;20030;-55
2022/02/17 06:04:21;;;;;;;1.85;0.32;;;10.00;99.90;;;;;;5039704;28;20025;-56
2022/02/17 06:06:46;;;;;;;2.70;0.40;;;10.00;99.90;;;;;;5039273;28;20446;-56
2022/02/17 06:09:12;;;;;;;0.30;0.30;;;10.00;99.90;;;;;;5042679;28;20024;-56
2022/02/17 06:11:38;;;;;;;0.30;0.30;;;10.00;99.90;;;;;;5033572;28;20032;-56
2022/02/17 06:14:03;;;;;;;0.30;0.30;;;10.00;99.90;;;;;;5039406;28;20371;-56
2022/02/17 06:16:29;;;;;;;0.30;0.30;;;10.00;99.90;;;;;;5032877;28;20496;-56
2022/02/17 06:18:54;;;;;;;2.45;0.70;;;10.00;99.90;;;;;;5043069;28;20036;-56
2022/02/17 06:21:20;;;;;;;0.43;0.30;;;10.00;99.90;;;;;;5034108;28;20119;-56
2022/02/17 06:23:46;;;;;;;0.20;0.20;;;10.00;99.90;;;;;;5034805;28;20039;-56
2022/02/17 06:26:11;;;;;;;0.52;0.40;;;10.00;99.90;;;;;;5037447;28;20052;-56
2022/02/17 06:28:37;;;;;;;0.30;0.30;;;10.00;99.90;;;;;;5039094;28;20112;-56
2022/02/17 06:31:03;;;;;;;0.35;0.35;;;10.00;99.90;;;;;;5037205;28;20047;-56
2022/02/17 06:33:29;;;;;;;0.30;0.30;;;10.00;99.90;;;;;;5029198;28;20033;-56
2022/02/17 06:35:54;;;;;;;0.30;0.30;;;10.00;99.90;;;;;;5037142;28;20043;-55
2022/02/17 06:38:20;;;;;;;0.30;0.30;;;10.00;99.90;;;;;;5042733;28;20458;-54
2022/02/17 06:40:46;;;;;;;0.30;0.30;;;10.00;99.90;;;;;;5035326;28;20103;-54
2022/02/17 06:43:13;;;;;;;0.30;0.30;;;10.00;99.90;;;;;;5040936;28;20458;-54
2022/02/17 06:45:40;;;;;;;1.40;0.35;;;10.00;99.90;;;;;;5034607;28;20087;-54
2022/02/17 06:48:07;;;;;;;0.25;0.25;;;10.00;99.90;;;;;;5036710;28;20033;-54
2022/02/17 06:50:34;;;;;;;0.30;0.30;;;10.00;99.90;;;;;;5038382;28;20043;-54
2022/02/17 06:53:00;;;;;;;0.40;0.40;;;10.00;99.90;;;;;;5035540;28;20032;-54
2022/02/17 06:55:26;;;;;;;0.35;0.35;;;10.00;99.90;;;;;;5028350;28;20021;-54
2022/02/17 06:57:51;;;;;;;0.80;0.30;;;10.00;99.90;;;;;;5040247;28;20253;-54
2022/02/17 07:00:18;;;;;;;0.30;0.30;;;10.00;99.90;;;;;;5031330;28;20029;-54
2022/02/17 07:02:54;;;;;;;0.30;0.30;;;10.00;99.90;;;;;;5031950;28;20037;-54
2022/02/17 07:05:22;;;;;;;0.20;0.20;;;10.00;99.90;;;;;;5029849;28;20397;-54
2022/02/17 07:07:48;;;;;;;0.32;0.32;;;10.00;99.90;;;;;;5039607;28;20037;-54
2022/02/17 07:10:14;;;;;;;0.20;0.20;;;10.00;99.90;;;;;;5029518;28;20077;-54
2022/02/17 07:12:43;;;;;;;0.30;0.30;;;10.00;99.90;;;;;;5034679;28;20437;-53
2022/02/17 07:15:12;;;;;;;0.50;0.50;;;10.00;99.90;;;;;;5038607;28;20021;-53
2022/02/17 07:17:38;;;;;;;6.22;0.68;;;10.00;99.90;;;;;;5029745;28;20037;-54
2022/02/17 07:20:04;;;;;;;0.45;0.40;;;10.00;99.90;;;;;;5039306;28;20108;-53
2022/02/17 07:22:30;;;;;;;0.43;0.43;;;10.00;99.90;;;;;;5030782;28;20038;-54
2022/02/17 07:24:58;;;;;;;0.40;0.40;;;10.00;99.90;;;;;;5035466;28;20055;-54
2022/02/17 07:27:24;;;;;;;0.30;0.30;;;10.00;99.90;;;;;;5032914;28;20045;-54
2022/02/17 07:29:50;;;;;;;0.52;0.40;;;10.00;99.90;;;;;;5044538;28;20270;-53
2022/02/17 07:32:15;;;;;;;0.93;0.30;;;10.00;99.90;;;;;;5031507;28;20013;-54
2022/02/17 07:34:41;;;;;;;0.50;0.50;;;10.00;99.90;;;;;;5033028;28;20136;-54
2022/02/17 07:37:07;;;;;;;0.30;0.30;;;10.00;99.90;;;;;;5037958;28;20033;-54
2022/02/17 07:39:33;;;;;;;0.40;0.30;;;10.00;99.90;;;;;;5035152;28;20036;-54
2022/02/17 07:41:59;;;;;;;1.75;0.40;;;10.00;99.90;;;;;;5029950;28;20024;-54
2022/02/17 07:44:26;;;;;;;0.30;0.30;;;10.00;99.90;;;;;;5029937;28;20078;-54
2022/02/17 07:46:57;;;;;;;0.40;0.40;;;10.00;99.90;;;;;;5028625;28;20073;-54
2022/02/17 07:49:22;;;;;;;0.40;0.40;;;10.00;99.90;;;;;;5043009;28;20471;-54
2022/02/17 07:51:48;;;;;;;0.30;0.30;;;10.00;99.90;;;;;;5040645;28;20051;-54
2022/02/17 07:54:13;;;;;;;2.50;0.40;;;10.00;99.90;;;;;;5037158;28;20428;-54
2022/02/17 07:56:39;;;;;;;0.30;0.30;;;10.00;99.90;;;;;;5041198;28;20059;-54
2022/02/17 07:59:04;;;;;;;0.30;0.30;;;10.10;99.90;;;;;;5035473;28;20029;-54
2022/02/17 08:01:30;;;;;;;0.40;0.40;;;10.10;99.90;;;;;;5034129;28;20026;-54
2022/02/17 08:03:55;;;;;;;0.98;0.40;;;10.10;99.90;;;;;;5039297;28;20339;-54
2022/02/17 08:06:21;;;;;;;0.40;0.40;;;10.10;99.90;;;;;;5034392;28;20116;-54
2022/02/17 08:08:49;;;;;;;0.30;0.30;;;10.10;99.90;;;;;;5032726;28;20485;-54
2022/02/17 08:11:16;;;;;;;0.30;0.30;;;10.10;99.90;;;;;;5038128;28;20058;-54
2022/02/17 08:13:42;;;;;;;0.30;0.30;;;10.10;99.90;;;;;;5047173;28;20100;-54
2022/02/17 08:16:08;;;;;;;0.30;0.30;;;10.10;99.90;;;;;;5039643;28;20033;-54
2022/02/17 08:18:34;;;;;;;0.40;0.40;;;10.10;99.90;;;;;;5037244;28;20052;-54
2022/02/17 08:21:00;;;;;;;0.45;0.40;;;10.10;99.90;;;;;;5035935;28;20026;-54
2022/02/17 08:23:26;;;;;;;0.30;0.30;;;10.10;99.90;;;;;;5035911;28;20108;-54
2022/02/17 08:25:52;;;;;;;0.65;0.40;;;10.10;99.90;;;;;;5041487;28;20450;-54
2022/02/17 08:28:18;;;;;;;0.32;0.32;;;10.10;99.90;;;;;;5039822;28;20057;-54
2022/02/17 08:30:43;;;;;;;0.40;0.40;;;10.10;99.90;;;;;;5043096;28;20033;-54
2022/02/17 08:33:09;;;;;;;0.57;0.40;;;10.10;99.90;;;;;;5037361;28;20025;-54
2022/02/17 08:35:34;;;;;;;0.50;0.40;;;10.10;99.90;;;;;;5042771;28;20075;-54
2022/02/17 08:38:01;;;;;;;0.38;0.35;;;10.10;99.90;;;;;;5043203;28;20035;-54
2022/02/17 08:40:30;;;;;;;1.30;0.55;;;10.10;99.90;;;;;;5037339;28;20111;-54
2022/02/17 08:43:08;;;;;;;4.75;0.63;;;10.10;99.90;;;;;;5041255;28;20030;-54
2022/02/17 08:45:43;;;;;;;1.52;0.40;;;10.10;99.90;;;;;;5038807;28;20035;-54
2022/02/17 08:48:10;;;;;;;1.88;0.70;;;10.10;99.90;;;;;;5040704;28;20044;-54
2022/02/17 08:50:39;;;;;;;4.38;1.00;;;10.10;99.90;;;;;;5038216;28;20095;-54
2022/02/17 08:53:05;;;;;;;1.55;0.68;;;10.10;99.90;;;;;;5041785;28;20026;-54
2022/02/17 08:55:31;;;;;;;0.90;0.50;;;10.10;99.90;;;;;;5042132;28;20445;-54
2022/02/17 08:57:56;;;;;;;1.55;0.60;;;10.20;99.90;;;;;;5043684;28;20116;-54
2022/02/17 09:00:22;;;;;;;0.43;0.43;;;10.20;99.90;;;;;;5034084;28;20351;-54
2022/02/17 09:02:48;;;;;;;1.48;0.47;;;10.20;99.90;;;;;;5032931;28;20044;-53
2022/02/17 09:05:13;;;;;;;0.73;0.73;;;10.20;99.90;;;;;;5034183;28;20063;-54
2022/02/17 09:07:39;;;;;;;6.18;1.08;;;10.20;99.90;;;;;;5036160;28;20033;-53
2022/02/17 09:10:06;;;;;;;3.40;1.02;;;10.20;99.90;;;;;;5036738;28;20040;-53
2022/02/17 09:12:34;;;;;;;5.72;0.93;;;10.20;99.90;;;;;;5039338;28;20032;-54
2022/02/17 09:15:00;;;;;;;2.55;0.63;;;10.20;99.90;;;;;;5040822;28;20028;-53
2022/02/17 09:17:26;;;;;;;5.97;0.88;;;10.20;99.90;;;;;;5036747;28;20332;-53
2022/02/17 09:19:51;;;;;;;6.13;0.63;;;10.20;99.90;;;;;;5040130;28;20056;-53
2022/02/17 09:22:17;;;;;;;8.90;1.05;;;10.20;99.90;;;;;;5041344;28;20441;-53
2022/02/17 09:24:43;;;;;;;2.15;0.95;;;10.30;99.90;;;;;;5040078;28;20537;-53
2022/02/17 09:27:08;;;;;;;5.82;1.00;;;10.30;99.90;;;;;;5038253;28;20105;-54
2022/02/17 09:29:35;;;;;;;7.35;0.85;;;10.30;99.90;;;;;;5042506;28;20285;-53
2022/02/17 09:32:01;;;;;;;2.88;1.30;;;10.30;99.90;;;;;;5032816;28;20108;-53
2022/02/17 09:34:26;;;;;;;2.35;0.75;;;10.30;99.90;;;;;;5042871;28;20148;-54
2022/02/17 09:36:52;;;;;;;7.78;1.10;;;10.30;99.90;;;;;;5041831;28;20439;-53
2022/02/17 09:39:18;;;;;;;3.63;1.13;;;10.30;99.90;;;;;;5039203;28;20048;-53
2022/02/17 09:41:45;;;;;;;3.40;0.95;;;10.30;99.90;;;;;;5038159;28;20048;-54
2022/02/17 09:44:11;;;;;;;5.30;1.40;;;10.30;99.90;;;;;;5040254;28;20036;-53
2022/02/17 09:46:38;;;;;;;2.17;0.88;;;10.40;99.90;;;;;;5038105;28;20029;-54
2022/02/17 09:49:04;;;;;;;1.02;0.70;;;10.40;99.90;;;;;;5038194;28;20055;-53
2022/02/17 09:51:32;;;;;;;4.13;0.82;;;10.40;99.90;;;;;;5043038;28;20037;-54
2022/02/17 09:53:59;;;;;;;3.53;1.02;;;10.50;99.90;;;;;;5042531;28;20120;-53
2022/02/17 09:56:25;;;;;;;4.38;1.38;;;10.50;99.90;;;;;;5035893;28;20021;-54
2022/02/17 09:58:52;;;;;;;6.93;0.90;;;10.60;99.90;;;;;;5042919;28;20025;-54
2022/02/17 10:01:20;;;;;;;7.28;1.48;;;10.60;99.90;;;;;;5037962;28;20033;-53
2022/02/17 10:03:46;;;;;;;1.40;0.73;;;10.70;99.90;;;;;;5030445;28;20041;-53
2022/02/17 10:06:14;;;;;;;2.97;1.05;;;10.70;99.90;;;;;;5039842;28;20409;-54
2022/02/17 10:08:40;;;;;;;0.65;0.65;;;10.70;99.90;;;;;;5040223;28;20048;-54
2022/02/17 10:11:08;;;;;;;4.72;0.70;;;10.70;99.90;;;;;;5034586;28;20467;-53
2022/02/17 10:13:34;;;;;;;5.10;0.98;;;10.80;99.90;;;;;;5033344;28;20056;-54
2022/02/17 10:16:01;;;;;;;8.93;0.98;;;10.80;99.90;;;;;;5040113;28;20351;-54
2022/02/17 10:18:30;;;;;;;3.83;1.25;;;10.90;99.90;;;;;;5036834;28;20053;-54
2022/02/17 10:21:05;;;;;;;4.63;0.88;;;10.90;99.90;;;;;;5037522;28;20021;-53
2022/02/17 10:23:42;;;;;;;6.63;1.17;;;11.00;99.60;;;;;;5036101;28;20032;-54
2022/02/17 10:26:10;;;;;;;9.88;1.98;;;11.00;99.50;;;;;;5042474;28;20116;-54
2022/02/17 10:28:47;;;;;;;4.95;0.90;;;11.00;99.40;;;;;;5034281;28;20026;-54
2022/02/17 10:31:23;;;;;;;7.03;0.98;;;11.10;99.60;;;;;;5038324;28;20041;-53
2022/02/17 10:33:53;;;;;;;3.10;0.93;;;11.10;99.90;;;;;;5031817;28;20049;-54
2022/02/17 10:36:37;;;;;;;;;;;11.20;99.60;;;;;;5036018;28;20079;-54
2022/02/17 10:39:09;;;;;;;5.28;1.15;;;11.20;98.50;;;;;;5037887;28;19905;-54
2022/02/17 10:41:59;;;;;;;1.00;0.50;;;11.30;98.90;;;;;;5033387;28;20025;-54
2022/02/17 10:44:29;;;;;;;;;;;11.20;98.90;;;;;;5037421;28;20025;-54
2022/02/17 10:46:55;;;;;;;6.07;1.00;;;11.30;98.60;;;;;;5040455;28;19905;-53
2022/02/17 10:49:21;;;;;;;4.63;1.05;;;11.30;98.80;;;;;;5038613;28;20039;-54
2022/02/17 10:51:50;;;;;;;4.68;1.20;;;11.40;98.50;;;;;;5037343;28;20045;-54
2022/02/17 10:54:24;;;;;;;7.43;1.33;;;11.40;98.30;;;;;;5039466;28;20104;-54
2022/02/17 10:56:51;;;;;;;4.28;1.27;;;11.30;98.60;;;;;;5037316;28;20336;-54
2022/02/17 11:02:04;;;;;;;3.10;0.90;;;11.10;98.60;;;;;;5034852;28;20080;-54
2022/02/17 11:04:30;;;;;;;4.82;1.45;;;11.10;98.40;;;;;;5026688;28;20049;-54
2022/02/17 11:06:57;;;;;;;11.20;1.45;;;11.10;98.70;;;;;;5036941;28;20111;-54
2022/02/17 11:09:23;;;;;;;6.20;1.13;;;11.10;98.80;;;;;;5037377;28;20026;-54
2022/02/17 11:11:51;;;;;;;10.73;1.52;;;11.10;98.90;;;;;;5041653;28;20347;-54
2022/02/17 11:14:44;;;;;;;6.50;1.30;;;11.20;98.90;;;;;;5040217;28;20026;-54
2022/02/17 11:17:12;;;;;;;10.55;1.13;;;11.20;98.80;;;;;;5039538;28;20029;-54
2022/02/17 11:19:39;;;;;;;5.32;1.92;;;11.20;99.00;;;;;;5034253;28;20036;-54
2022/02/17 11:22:05;;;;;;;6.55;1.27;;;11.30;98.40;;;;;;5036974;28;20033;-54
2022/02/17 11:24:54;;;;;;;1.05;0.80;;;11.40;98.60;;;;;;5038057;28;20095;-54
2022/02/17 11:27:21;;;;;;;7.35;1.35;;;11.40;98.80;;;;;;5041906;28;20029;-54
2022/02/17 11:29:48;;;;;;;3.28;1.75;;;11.40;98.70;;;;;;5038676;28;20033;-54
2022/02/17 11:32:18;;;;;;;1.55;0.80;;;11.40;99.10;;;;;;5039992;28;20045;-54
2022/02/17 11:34:50;;;;;;;5.55;1.02;;;11.40;98.90;;;;;;5036077;28;20029;-54
2022/02/17 11:37:30;;;;;;;6.00;1.20;;;11.40;98.60;;;;;;5042082;28;20048;-54
2022/02/17 11:40:07;;;;;;;1.77;1.08;;;11.50;98.80;;;;;;5038165;28;20382;-54
2022/02/17 11:42:37;;;;;;;8.57;1.08;;;11.40;98.80;;;;;;5038610;28;20388;-54
2022/02/17 11:45:18;;;;;;;5.90;1.27;;;11.40;98.60;;;;;;5036675;28;20025;-55
2022/02/17 11:48:03;;;;;;;1.98;0.85;;;11.40;99.20;;;;;;5035549;28;20034;-54
2022/02/17 11:50:37;;;;;;;14.43;1.08;;;11.40;98.50;;;;;;5034236;28;20041;-54
2022/02/17 11:53:28;;;;;;;1.65;0.80;;;11.40;98.90;;;;;;5040535;28;20028;-54
2022/02/17 11:56:17;;;;;;;2.97;1.15;;;11.50;99.00;;;;;;5036768;28;20458;-54
2022/02/17 11:58:47;;;;;;;9.50;1.38;;;11.50;98.90;;;;;;5038197;28;20299;-54
2022/02/17 12:01:21;;;;;;;1.63;0.93;;;11.40;98.90;;;;;;5035282;28;20057;-54
2022/02/17 12:04:06;;;;;;;2.88;1.02;;;11.40;98.80;;;;;;5035648;28;20463;-54
2022/02/17 12:06:41;;;;;;;3.00;1.08;;;11.40;98.70;;;;;;5040465;28;20040;-54
2022/02/17 12:09:10;;;;;;;7.93;1.50;;;11.50;98.70;;;;;;5040121;28;20056;-54
2022/02/17 12:11:41;;;;;;;5.32;1.05;;;11.50;98.90;;;;;;5036513;28;20766;-54
2022/02/17 12:14:08;;;;;;;2.97;1.27;;;11.50;98.90;;;;;;5040869;28;20066;-54
2022/02/17 12:16:41;;;;;;;6.68;2.03;;;11.40;98.90;;;;;;5037407;28;20029;-55
2022/02/17 12:19:15;;;;;;;13.50;1.45;;;11.40;99.20;;;;;;5035981;28;20085;-54
2022/02/17 12:21:42;;;;;;;3.45;0.95;;;11.50;99.00;;;;;;5032337;28;20033;-54
2022/02/17 12:24:09;;;;;;;11.80;1.35;;;11.40;99.10;;;;;;5040104;28;20032;-54
2022/02/17 12:26:42;;;;;;;5.32;1.15;;;11.40;99.00;;;;;;5036357;28;20350;-54
2022/02/17 12:29:29;;;;;;;8.25;1.35;;;11.40;98.90;;;;;;5036825;28;20036;-54
2022/02/17 12:31:57;;;;;;;11.10;1.60;;;11.40;98.90;;;;;;5037180;28;20036;-54
2022/02/17 12:34:24;;;;;;;9.75;1.88;;;11.30;99.30;;;;;;5031563;28;20116;-55
2022/02/17 12:36:50;;;;;;;6.45;1.58;;;11.30;99.10;;;;;;5038750;28;20034;-55
2022/02/17 12:39:16;;;;;;;10.35;1.73;;;11.40;99.20;;;;;;5041546;28;20017;-55
2022/02/17 12:42:04;;;;;;;6.70;1.13;;;11.30;99.10;;;;;;5040085;28;20473;-54
2022/02/17 12:44:34;;;;;;;5.80;1.13;;;11.30;99.20;;;;;;5035096;28;20029;-54
2022/02/17 12:47:01;;;;;;;;;;;11.30;99.30;;;;;;5039022;28;20083;-54
2022/02/17 12:49:29;;;;;;;12.23;1.83;;;11.30;99.20;;;;;;5036021;28;19913;-55
2022/02/17 12:52:15;;;;;;;3.33;0.80;;;11.40;99.50;;;;;;5035370;28;20079;-54
2022/02/17 12:54:51;;;;;;;4.22;0.70;;;11.40;99.00;;;;;;5032415;28;20485;-55
2022/02/17 12:57:17;;;;;;;8.95;1.00;;;11.30;99.10;;;;;;5044931;28;20020;-55
2022/02/17 12:59:44;;;;;;;14.75;1.02;;;11.30;99.00;;;;;;5039354;28;20406;-54